RYR946 EPKK-LOWW
Flight info
| Callsign | RYR946 |
|---|---|
| Flight time | 0h 42m |
| Altitude | 24000 |
| Route | BABKO DCT VADEX DCT BABNI DCT TUTPI P182 REKLU REKLU3W |
| Aircraft | B738/M-SDE2E3FGHIRWXY/LB1 |
Departure
| Time | 2026-04-24 19:22 |
|---|---|
| Airport | Kraków John Paul II International Airport (EPKK) |
Arrival
| Time | 2026-04-24 20:04 |
|---|---|
| Airport | Vienna International Airport (LOWW) |
| Time | Latitude | Longitude | Altitude | Speed | Heading |
|---|---|---|---|---|---|
| 2026-04-24 18:54 | 50.07471 | 19.80079 | 799 ft | 0 kts | 167° |
| 2026-04-24 19:16 | 50.07442 | 19.80089 | 799 ft | 9 kts | 167° |
| 2026-04-24 19:17 | 50.07421 | 19.80188 | 799 ft | 12 kts | 77° |
| 2026-04-24 19:17 | 50.07438 | 19.80308 | 799 ft | 11 kts | 76° |
| 2026-04-24 19:17 | 50.07489 | 19.80389 | 799 ft | 11 kts | 18° |
| 2026-04-24 19:17 | 50.07561 | 19.80419 | 799 ft | 11 kts | 8° |
| 2026-04-24 19:18 | 50.07633 | 19.80407 | 799 ft | 10 kts | 347° |
| 2026-04-24 19:18 | 50.07702 | 19.80384 | 799 ft | 10 kts | 348° |
| 2026-04-24 19:18 | 50.07768 | 19.80363 | 799 ft | 10 kts | 348° |
| 2026-04-24 19:18 | 50.07827 | 19.80342 | 799 ft | 7 kts | 346° |
| 2026-04-24 19:19 | 50.07838 | 19.80338 | 799 ft | 0 kts | 347° |
| 2026-04-24 19:19 | 50.07839 | 19.80338 | 799 ft | 1 kts | 347° |
| 2026-04-24 19:19 | 50.07870 | 19.80327 | 799 ft | 9 kts | 349° |
| 2026-04-24 19:20 | 50.07962 | 19.80298 | 799 ft | 16 kts | 347° |
| 2026-04-24 19:20 | 50.08013 | 19.80210 | 799 ft | 11 kts | 270° |
| 2026-04-24 19:20 | 50.08010 | 19.80180 | 799 ft | 0 kts | 258° |
| 2026-04-24 19:21 | 50.07994 | 19.80064 | 800 ft | 37 kts | 258° |
| 2026-04-24 19:21 | 50.07885 | 19.79281 | 799 ft | 109 kts | 258° |
| 2026-04-24 19:22 | 50.07759 | 19.78379 | 801 ft | 148 kts | 258° |
| 2026-04-24 19:22 | 50.07427 | 19.76034 | 1488 ft | 166 kts | 258° |
| 2026-04-24 19:22 | 50.07181 | 19.74298 | 2345 ft | 164 kts | 258° |
| 2026-04-24 19:22 | 50.06931 | 19.72565 | 3088 ft | 163 kts | 260° |
| 2026-04-24 19:23 | 50.06672 | 19.70839 | 3799 ft | 166 kts | 256° |
| 2026-04-24 19:23 | 50.05925 | 19.69392 | 4287 ft | 191 kts | 211° |
| 2026-04-24 19:23 | 50.04577 | 19.68656 | 4549 ft | 218 kts | 200° |
| 2026-04-24 19:23 | 50.03044 | 19.67935 | 4743 ft | 241 kts | 200° |
| 2026-04-24 19:24 | 50.01424 | 19.67166 | 5204 ft | 250 kts | 200° |
| 2026-04-24 19:24 | 49.99755 | 19.66363 | 5828 ft | 254 kts | 200° |
| 2026-04-24 19:24 | 49.98009 | 19.65509 | 6278 ft | 270 kts | 201° |
| 2026-04-24 19:24 | 49.96196 | 19.64612 | 6978 ft | 276 kts | 201° |
| 2026-04-24 19:25 | 49.94362 | 19.63696 | 7758 ft | 278 kts | 201° |
| 2026-04-24 19:25 | 49.92508 | 19.62765 | 8518 ft | 282 kts | 201° |
| 2026-04-24 19:25 | 49.90630 | 19.61816 | 9254 ft | 285 kts | 201° |
| 2026-04-24 19:25 | 49.88737 | 19.60856 | 9987 ft | 289 kts | 201° |
| 2026-04-24 19:26 | 49.86794 | 19.59867 | 10445 ft | 303 kts | 201° |
| 2026-04-24 19:26 | 49.84711 | 19.58802 | 10620 ft | 326 kts | 201° |
| 2026-04-24 19:26 | 49.82532 | 19.57691 | 11022 ft | 340 kts | 201° |
| 2026-04-24 19:26 | 49.80266 | 19.56541 | 11655 ft | 345 kts | 201° |
| 2026-04-24 19:27 | 49.77971 | 19.55379 | 12358 ft | 349 kts | 201° |
| 2026-04-24 19:27 | 49.75645 | 19.54203 | 13041 ft | 354 kts | 201° |
| 2026-04-24 19:27 | 49.73292 | 19.53012 | 13765 ft | 357 kts | 201° |
| 2026-04-24 19:27 | 49.70921 | 19.51810 | 14489 ft | 361 kts | 201° |
| 2026-04-24 19:28 | 49.68518 | 19.50595 | 15199 ft | 365 kts | 201° |
| 2026-04-24 19:28 | 49.66087 | 19.49367 | 15897 ft | 369 kts | 201° |
| 2026-04-24 19:28 | 49.63676 | 19.48127 | 16573 ft | 372 kts | 205° |
| 2026-04-24 19:28 | 49.61366 | 19.46343 | 17204 ft | 372 kts | 217° |
| 2026-04-24 19:29 | 49.57519 | 19.41099 | 18514 ft | 371 kts | 231° |
| 2026-04-24 19:29 | 49.55749 | 19.38174 | 19156 ft | 374 kts | 232° |
| 2026-04-24 19:29 | 49.53984 | 19.35240 | 19889 ft | 373 kts | 232° |
| 2026-04-24 19:30 | 49.52219 | 19.32321 | 20637 ft | 372 kts | 232° |
| 2026-04-24 19:30 | 49.50454 | 19.29424 | 21334 ft | 371 kts | 232° |
| 2026-04-24 19:30 | 49.48684 | 19.26533 | 21992 ft | 372 kts | 232° |
| 2026-04-24 19:30 | 49.46908 | 19.23641 | 22647 ft | 372 kts | 232° |
| 2026-04-24 19:31 | 49.45161 | 19.20805 | 23343 ft | 370 kts | 232° |
| 2026-04-24 19:31 | 49.43387 | 19.17930 | 23898 ft | 372 kts | 232° |
| 2026-04-24 19:31 | 49.41609 | 19.15053 | 23982 ft | 369 kts | 232° |
| 2026-04-24 19:31 | 49.39848 | 19.12213 | 24014 ft | 368 kts | 232° |
| 2026-04-24 19:32 | 49.38075 | 19.09348 | 24030 ft | 371 kts | 232° |
| 2026-04-24 19:32 | 49.36293 | 19.06474 | 24037 ft | 373 kts | 232° |
| 2026-04-24 19:32 | 49.34501 | 19.03590 | 24027 ft | 374 kts | 232° |
| 2026-04-24 19:32 | 49.32706 | 19.00701 | 24033 ft | 374 kts | 232° |
| 2026-04-24 19:33 | 49.30934 | 18.97855 | 24026 ft | 374 kts | 232° |
| 2026-04-24 19:33 | 49.29140 | 18.94974 | 24029 ft | 373 kts | 232° |
| 2026-04-24 19:33 | 49.27349 | 18.92104 | 24024 ft | 372 kts | 231° |
| 2026-04-24 19:33 | 49.25563 | 18.89240 | 24032 ft | 371 kts | 232° |
| 2026-04-24 19:34 | 49.23948 | 18.86205 | 24027 ft | 366 kts | 239° |
| 2026-04-24 19:34 | 49.22504 | 18.83017 | 24025 ft | 364 kts | 241° |
| 2026-04-24 19:34 | 49.21094 | 18.79801 | 24025 ft | 363 kts | 241° |
| 2026-04-24 19:34 | 49.19691 | 18.76593 | 24023 ft | 363 kts | 241° |
| 2026-04-24 19:35 | 49.18282 | 18.73395 | 24022 ft | 363 kts | 241° |
| 2026-04-24 19:35 | 49.16866 | 18.70207 | 24013 ft | 363 kts | 241° |
| 2026-04-24 19:35 | 49.15463 | 18.67071 | 24020 ft | 363 kts | 240° |
| 2026-04-24 19:35 | 49.14033 | 18.63888 | 24018 ft | 363 kts | 240° |
| 2026-04-24 19:36 | 49.12602 | 18.60714 | 24017 ft | 363 kts | 240° |
| 2026-04-24 19:36 | 49.11168 | 18.57539 | 24022 ft | 364 kts | 240° |
| 2026-04-24 19:36 | 49.09728 | 18.54356 | 24014 ft | 365 kts | 240° |
| 2026-04-24 19:36 | 49.08284 | 18.51171 | 24010 ft | 365 kts | 240° |
| 2026-04-24 19:37 | 49.06841 | 18.47992 | 24019 ft | 365 kts | 240° |
| 2026-04-24 19:37 | 49.05394 | 18.44807 | 24013 ft | 365 kts | 240° |
| 2026-04-24 19:37 | 49.03970 | 18.41675 | 24033 ft | 364 kts | 240° |
| 2026-04-24 19:37 | 49.02525 | 18.38500 | 24025 ft | 365 kts | 240° |
| 2026-04-24 19:38 | 49.01079 | 18.35326 | 24025 ft | 365 kts | 240° |
| 2026-04-24 19:38 | 48.99629 | 18.32148 | 24034 ft | 365 kts | 240° |
| 2026-04-24 19:38 | 48.98178 | 18.28972 | 24030 ft | 366 kts | 240° |
| 2026-04-24 19:38 | 48.96741 | 18.25785 | 24034 ft | 364 kts | 243° |
| 2026-04-24 19:39 | 48.95593 | 18.22384 | 24033 ft | 359 kts | 251° |
| 2026-04-24 19:39 | 48.94607 | 18.18890 | 24027 ft | 359 kts | 252° |
| 2026-04-24 19:39 | 48.93650 | 18.15437 | 24033 ft | 359 kts | 251° |
| 2026-04-24 19:39 | 48.92678 | 18.11933 | 24023 ft | 360 kts | 251° |
| 2026-04-24 19:40 | 48.91700 | 18.08431 | 24023 ft | 360 kts | 251° |
| 2026-04-24 19:40 | 48.90715 | 18.04934 | 24018 ft | 360 kts | 251° |
| 2026-04-24 19:40 | 48.89727 | 18.01442 | 24016 ft | 360 kts | 251° |
| 2026-04-24 19:40 | 48.89070 | 17.99130 | 24022 ft | 360 kts | 251° |
| 2026-04-24 19:41 | 48.88077 | 17.95643 | 24013 ft | 359 kts | 251° |
| 2026-04-24 19:41 | 48.87083 | 17.92163 | 24019 ft | 359 kts | 251° |
| 2026-04-24 19:41 | 48.85763 | 17.87552 | 24017 ft | 359 kts | 251° |
| 2026-04-24 19:41 | 48.84766 | 17.84075 | 24023 ft | 359 kts | 251° |
| 2026-04-24 19:42 | 48.83769 | 17.80600 | 24017 ft | 359 kts | 251° |
| 2026-04-24 19:42 | 48.82770 | 17.77125 | 24020 ft | 359 kts | 251° |
| 2026-04-24 19:42 | 48.81768 | 17.73646 | 24020 ft | 360 kts | 251° |
| 2026-04-24 19:42 | 48.80766 | 17.70170 | 24022 ft | 360 kts | 251° |
| 2026-04-24 19:43 | 48.80101 | 17.67866 | 24020 ft | 360 kts | 251° |
| 2026-04-24 19:43 | 48.79095 | 17.64388 | 24020 ft | 360 kts | 250° |
| 2026-04-24 19:43 | 48.78089 | 17.60911 | 24022 ft | 360 kts | 250° |
| 2026-04-24 19:43 | 48.77082 | 17.57437 | 24024 ft | 360 kts | 250° |
| 2026-04-24 19:44 | 48.76074 | 17.53959 | 24018 ft | 361 kts | 250° |
| 2026-04-24 19:44 | 48.75062 | 17.50477 | 24019 ft | 361 kts | 250° |
| 2026-04-24 19:44 | 48.74048 | 17.46992 | 24023 ft | 361 kts | 250° |
| 2026-04-24 19:44 | 48.73046 | 17.43556 | 24019 ft | 362 kts | 250° |
| 2026-04-24 19:45 | 48.72144 | 17.39961 | 23754 ft | 373 kts | 259° |
| 2026-04-24 19:45 | 48.71664 | 17.36044 | 23390 ft | 382 kts | 268° |
| 2026-04-24 19:45 | 48.71635 | 17.32064 | 22943 ft | 375 kts | 275° |
| 2026-04-24 19:45 | 48.71715 | 17.28138 | 22487 ft | 373 kts | 271° |
| 2026-04-24 19:46 | 48.71343 | 17.24254 | 22034 ft | 374 kts | 258° |
| 2026-04-24 19:46 | 48.70439 | 17.20563 | 21617 ft | 375 kts | 247° |
| 2026-04-24 19:46 | 48.69088 | 17.17176 | 21165 ft | 375 kts | 240° |
| 2026-04-24 19:46 | 48.67639 | 17.13911 | 20726 ft | 373 kts | 240° |
| 2026-04-24 19:47 | 48.66210 | 17.10713 | 20285 ft | 370 kts | 240° |
| 2026-04-24 19:47 | 48.64780 | 17.07489 | 19847 ft | 368 kts | 240° |
| 2026-04-24 19:47 | 48.63371 | 17.04277 | 19414 ft | 365 kts | 240° |
| 2026-04-24 19:47 | 48.61977 | 17.01083 | 18989 ft | 363 kts | 240° |
| 2026-04-24 19:48 | 48.60591 | 16.97908 | 18552 ft | 360 kts | 240° |
| 2026-04-24 19:48 | 48.59264 | 16.94718 | 18119 ft | 356 kts | 248° |
| 2026-04-24 19:48 | 48.58398 | 16.87662 | 17556 ft | 340 kts | 270° |
| 2026-04-24 19:49 | 48.58074 | 16.80426 | 17002 ft | 349 kts | 269° |
| 2026-04-24 19:49 | 48.57075 | 16.73372 | 16412 ft | 355 kts | 242° |
| 2026-04-24 19:50 | 48.50788 | 16.67848 | 15571 ft | 370 kts | 188° |
| 2026-04-24 19:50 | 48.48221 | 16.67498 | 15264 ft | 370 kts | 187° |
| 2026-04-24 19:51 | 48.43107 | 16.66809 | 14653 ft | 368 kts | 188° |
| 2026-04-24 19:51 | 48.40588 | 16.66436 | 14359 ft | 368 kts | 188° |
| 2026-04-24 19:52 | 48.35510 | 16.65658 | 13767 ft | 365 kts | 188° |
| 2026-04-24 19:52 | 48.32988 | 16.65273 | 13478 ft | 364 kts | 188° |
| 2026-04-24 19:52 | 48.30474 | 16.64892 | 13183 ft | 362 kts | 189° |
| 2026-04-24 19:52 | 48.27974 | 16.64512 | 12888 ft | 361 kts | 189° |
| 2026-04-24 19:53 | 48.25482 | 16.64134 | 12595 ft | 359 kts | 189° |
| 2026-04-24 19:53 | 48.23006 | 16.63761 | 12306 ft | 358 kts | 188° |
| 2026-04-24 19:53 | 48.18276 | 16.65691 | 11711 ft | 362 kts | 142° |
| 2026-04-24 19:54 | 48.16591 | 16.68380 | 11434 ft | 360 kts | 121° |
| 2026-04-24 19:54 | 48.15431 | 16.71677 | 11186 ft | 355 kts | 114° |
| 2026-04-24 19:54 | 48.14386 | 16.74970 | 10713 ft | 347 kts | 114° |
| 2026-04-24 19:54 | 48.13350 | 16.78219 | 10016 ft | 346 kts | 114° |
| 2026-04-24 19:55 | 48.12653 | 16.80364 | 9551 ft | 345 kts | 115° |
| 2026-04-24 19:55 | 48.11238 | 16.84651 | 8726 ft | 340 kts | 116° |
| 2026-04-24 19:55 | 48.10192 | 16.87798 | 8141 ft | 336 kts | 116° |
| 2026-04-24 19:55 | 48.09157 | 16.90906 | 7528 ft | 332 kts | 116° |
| 2026-04-24 19:56 | 48.08143 | 16.93946 | 6944 ft | 329 kts | 115° |
| 2026-04-24 19:56 | 48.07129 | 16.96983 | 6329 ft | 325 kts | 116° |
| 2026-04-24 19:56 | 48.05817 | 16.99660 | 5994 ft | 313 kts | 140° |
| 2026-04-24 19:56 | 48.03995 | 17.01197 | 5864 ft | 292 kts | 166° |
| 2026-04-24 19:57 | 48.02061 | 17.01383 | 5739 ft | 270 kts | 195° |
| 2026-04-24 19:57 | 48.00421 | 17.00319 | 5494 ft | 251 kts | 223° |
| 2026-04-24 19:57 | 47.99446 | 16.98339 | 5309 ft | 228 kts | 256° |
| 2026-04-24 19:57 | 47.99165 | 16.96060 | 4989 ft | 225 kts | 268° |
| 2026-04-24 19:58 | 47.99124 | 16.93776 | 4826 ft | 216 kts | 284° |
| 2026-04-24 19:58 | 47.99770 | 16.91819 | 4594 ft | 210 kts | 304° |
| 2026-04-24 19:58 | 48.00481 | 16.89916 | 4328 ft | 211 kts | 297° |
| 2026-04-24 19:58 | 48.01108 | 16.87946 | 4094 ft | 210 kts | 297° |
| 2026-04-24 19:59 | 48.01723 | 16.86008 | 3868 ft | 209 kts | 297° |
| 2026-04-24 19:59 | 48.02350 | 16.84048 | 3593 ft | 210 kts | 297° |
| 2026-04-24 19:59 | 48.02983 | 16.82080 | 3354 ft | 209 kts | 298° |
| 2026-04-24 19:59 | 48.03614 | 16.80121 | 3106 ft | 209 kts | 298° |
| 2026-04-24 20:00 | 48.04240 | 16.78177 | 3039 ft | 202 kts | 298° |
| 2026-04-24 20:00 | 48.04828 | 16.76349 | 2995 ft | 188 kts | 298° |
| 2026-04-24 20:00 | 48.05375 | 16.74654 | 2986 ft | 177 kts | 298° |
| 2026-04-24 20:00 | 48.05911 | 16.72995 | 2823 ft | 176 kts | 298° |
| 2026-04-24 20:01 | 48.06437 | 16.71371 | 2586 ft | 171 kts | 297° |
| 2026-04-24 20:01 | 48.06935 | 16.69824 | 2376 ft | 159 kts | 297° |
| 2026-04-24 20:01 | 48.07412 | 16.68350 | 2182 ft | 156 kts | 297° |
| 2026-04-24 20:01 | 48.07866 | 16.66947 | 1966 ft | 151 kts | 297° |
| 2026-04-24 20:02 | 48.08317 | 16.65551 | 1777 ft | 149 kts | 297° |
| 2026-04-24 20:02 | 48.08767 | 16.64155 | 1583 ft | 149 kts | 297° |
| 2026-04-24 20:02 | 48.09215 | 16.62765 | 1356 ft | 148 kts | 297° |
| 2026-04-24 20:02 | 48.09665 | 16.61385 | 1171 ft | 147 kts | 296° |
| 2026-04-24 20:03 | 48.10107 | 16.60005 | 983 ft | 148 kts | 296° |
| 2026-04-24 20:03 | 48.10559 | 16.58616 | 787 ft | 148 kts | 296° |
| 2026-04-24 20:03 | 48.11013 | 16.57240 | 643 ft | 146 kts | 296° |
| 2026-04-24 20:03 | 48.11417 | 16.55984 | 612 ft | 110 kts | 296° |
| 2026-04-24 20:04 | 48.11665 | 16.55229 | 616 ft | 53 kts | 296° |
| 2026-04-24 20:04 | 48.11812 | 16.54806 | 616 ft | 40 kts | 304° |
| 2026-04-24 20:04 | 48.11966 | 16.54588 | 622 ft | 17 kts | 324° |
| 2026-04-24 20:04 | 48.12017 | 16.54545 | 611 ft | 7 kts | 344° |
| 2026-04-24 20:05 | 48.12061 | 16.54558 | 617 ft | 7 kts | 52° |
| 2026-04-24 20:05 | 48.12069 | 16.54627 | 608 ft | 7 kts | 95° |
| 2026-04-24 20:05 | 48.12050 | 16.54698 | 620 ft | 9 kts | 117° |
| 2026-04-24 20:05 | 48.12021 | 16.54777 | 623 ft | 8 kts | 117° |
| 2026-04-24 20:06 | 48.11994 | 16.54859 | 617 ft | 9 kts | 114° |
| 2026-04-24 20:06 | 48.11969 | 16.54943 | 616 ft | 8 kts | 116° |
| 2026-04-24 20:06 | 48.11944 | 16.55024 | 618 ft | 9 kts | 115° |
| 2026-04-24 20:06 | 48.11912 | 16.55118 | 615 ft | 14 kts | 116° |
| 2026-04-24 20:07 | 48.11878 | 16.55218 | 614 ft | 15 kts | 117° |
| 2026-04-24 20:07 | 48.11836 | 16.55391 | 613 ft | 12 kts | 74° |
| 2026-04-24 20:07 | 48.11905 | 16.55440 | 620 ft | 11 kts | 13° |
| 2026-04-24 20:07 | 48.11964 | 16.55475 | 611 ft | 8 kts | 25° |
| 2026-04-24 20:08 | 48.11997 | 16.55463 | 612 ft | 5 kts | 312° |
| 2026-04-24 20:08 | 48.12010 | 16.55431 | 608 ft | 0 kts | 296° |